sensor_id;sensor_type;location;lat;lon;timestamp;P1;durP1;ratioP1;P2;durP2;ratioP2
2576;SDS011;1298;51.252;6.802;2023-08-21T00:01:22;841.22;;;784.45;;
2576;SDS011;1298;51.252;6.802;2023-08-21T00:04:08;857.00;;;799.25;;
2576;SDS011;1298;51.252;6.802;2023-08-21T00:06:53;815.55;;;759.45;;
2576;SDS011;1298;51.252;6.802;2023-08-21T00:09:39;915.38;;;855.97;;
2576;SDS011;1298;51.252;6.802;2023-08-21T00:12:24;845.92;;;788.80;;
2576;SDS011;1298;51.252;6.802;2023-08-21T00:15:11;852.25;;;795.05;;
2576;SDS011;1298;51.252;6.802;2023-08-21T00:17:57;852.92;;;795.85;;
2576;SDS011;1298;51.252;6.802;2023-08-21T00:20:44;853.25;;;795.85;;
2576;SDS011;1298;51.252;6.802;2023-08-21T00:23:30;908.05;;;848.83;;
2576;SDS011;1298;51.252;6.802;2023-08-21T00:26:15;910.42;;;851.15;;
2576;SDS011;1298;51.252;6.802;2023-08-21T00:29:01;844.15;;;787.13;;
2576;SDS011;1298;51.252;6.802;2023-08-21T00:31:48;850.42;;;792.20;;
2576;SDS011;1298;51.252;6.802;2023-08-21T00:34:33;844.75;;;787.58;;
2576;SDS011;1298;51.252;6.802;2023-08-21T00:37:19;842.03;;;785.35;;
2576;SDS011;1298;51.252;6.802;2023-08-21T00:40:05;829.63;;;773.10;;
2576;SDS011;1298;51.252;6.802;2023-08-21T00:42:51;885.88;;;827.40;;
2576;SDS011;1298;51.252;6.802;2023-08-21T00:45:37;847.03;;;790.13;;
2576;SDS011;1298;51.252;6.802;2023-08-21T00:48:28;812.58;;;756.20;;
2576;SDS011;1298;51.252;6.802;2023-08-21T00:51:14;905.58;;;846.28;;
2576;SDS011;1298;51.252;6.802;2023-08-21T00:54:01;896.35;;;837.63;;
2576;SDS011;1298;51.252;6.802;2023-08-21T00:56:47;909.83;;;850.20;;
2576;SDS011;1298;51.252;6.802;2023-08-21T00:59:35;913.10;;;853.83;;
2576;SDS011;1298;51.252;6.802;2023-08-21T01:02:21;826.17;;;768.95;;
2576;SDS011;1298;51.252;6.802;2023-08-21T01:05:09;837.45;;;780.67;;
2576;SDS011;1298;51.252;6.802;2023-08-21T01:07:56;843.08;;;786.20;;
2576;SDS011;1298;51.252;6.802;2023-08-21T01:10:48;835.25;;;778.10;;
2576;SDS011;1298;51.252;6.802;2023-08-21T01:13:42;846.53;;;789.65;;
2576;SDS011;1298;51.252;6.802;2023-08-21T01:16:33;831.70;;;774.78;;
2576;SDS011;1298;51.252;6.802;2023-08-21T01:19:24;803.17;;;747.53;;
2576;SDS011;1298;51.252;6.802;2023-08-21T01:22:17;804.20;;;748.13;;
2576;SDS011;1298;51.252;6.802;2023-08-21T01:25:05;883.42;;;825.40;;
2576;SDS011;1298;51.252;6.802;2023-08-21T01:27:51;810.25;;;754.13;;
2576;SDS011;1298;51.252;6.802;2023-08-21T01:30:37;809.22;;;752.83;;
2576;SDS011;1298;51.252;6.802;2023-08-21T01:33:22;822.88;;;766.38;;
2576;SDS011;1298;51.252;6.802;2023-08-21T01:36:10;815.00;;;758.83;;
2576;SDS011;1298;51.252;6.802;2023-08-21T01:38:56;892.47;;;833.78;;
2576;SDS011;1298;51.252;6.802;2023-08-21T01:41:43;821.95;;;765.65;;
2576;SDS011;1298;51.252;6.802;2023-08-21T01:44:28;818.70;;;762.17;;
2576;SDS011;1298;51.252;6.802;2023-08-21T01:47:14;873.75;;;815.75;;
2576;SDS011;1298;51.252;6.802;2023-08-21T01:50:00;824.22;;;767.50;;
2576;SDS011;1298;51.252;6.802;2023-08-21T01:52:45;819.63;;;763.50;;
2576;SDS011;1298;51.252;6.802;2023-08-21T01:55:31;891.03;;;832.35;;
2576;SDS011;1298;51.252;6.802;2023-08-21T01:58:17;802.90;;;747.22;;
2576;SDS011;1298;51.252;6.802;2023-08-21T02:01:03;815.53;;;759.20;;
2576;SDS011;1298;51.252;6.802;2023-08-21T02:03:49;803.75;;;747.67;;
2576;SDS011;1298;51.252;6.802;2023-08-21T02:06:34;875.30;;;817.42;;
2576;SDS011;1298;51.252;6.802;2023-08-21T02:09:20;808.17;;;752.17;;
2576;SDS011;1298;51.252;6.802;2023-08-21T02:12:05;822.05;;;765.72;;
2576;SDS011;1298;51.252;6.802;2023-08-21T02:14:53;803.25;;;747.47;;
2576;SDS011;1298;51.252;6.802;2023-08-21T02:17:39;816.42;;;760.05;;
2576;SDS011;1298;51.252;6.802;2023-08-21T02:20:26;882.20;;;823.88;;
2576;SDS011;1298;51.252;6.802;2023-08-21T02:23:11;797.35;;;741.55;;
2576;SDS011;1298;51.252;6.802;2023-08-21T02:25:57;819.25;;;762.17;;
2576;SDS011;1298;51.252;6.802;2023-08-21T02:28:43;826.58;;;770.05;;
2576;SDS011;1298;51.252;6.802;2023-08-21T02:31:31;824.45;;;767.88;;
2576;SDS011;1298;51.252;6.802;2023-08-21T02:34:16;830.40;;;773.63;;
2576;SDS011;1298;51.252;6.802;2023-08-21T02:37:01;805.20;;;749.25;;
2576;SDS011;1298;51.252;6.802;2023-08-21T02:39:48;797.58;;;742.08;;
2576;SDS011;1298;51.252;6.802;2023-08-21T02:42:34;881.83;;;823.70;;
2576;SDS011;1298;51.252;6.802;2023-08-21T02:45:20;819.30;;;762.85;;
2576;SDS011;1298;51.252;6.802;2023-08-21T02:48:06;827.15;;;770.58;;
2576;SDS011;1298;51.252;6.802;2023-08-21T02:50:52;822.78;;;765.85;;
2576;SDS011;1298;51.252;6.802;2023-08-21T02:53:37;841.55;;;784.55;;
2576;SDS011;1298;51.252;6.802;2023-08-21T02:56:23;837.17;;;780.53;;
2576;SDS011;1298;51.252;6.802;2023-08-21T02:59:08;836.58;;;779.65;;
2576;SDS011;1298;51.252;6.802;2023-08-21T03:01:54;807.70;;;751.88;;
2576;SDS011;1298;51.252;6.802;2023-08-21T03:04:41;811.72;;;755.22;;
2576;SDS011;1298;51.252;6.802;2023-08-21T03:07:27;824.95;;;768.53;;
2576;SDS011;1298;51.252;6.802;2023-08-21T03:10:12;793.95;;;737.65;;
2576;SDS011;1298;51.252;6.802;2023-08-21T03:12:57;891.10;;;832.58;;
2576;SDS011;1298;51.252;6.802;2023-08-21T03:15:43;834.00;;;776.78;;
2576;SDS011;1298;51.252;6.802;2023-08-21T03:18:30;822.78;;;766.10;;
2576;SDS011;1298;51.252;6.802;2023-08-21T03:21:17;807.03;;;751.00;;
2576;SDS011;1298;51.252;6.802;2023-08-21T03:24:03;818.22;;;762.10;;
2576;SDS011;1298;51.252;6.802;2023-08-21T03:26:51;813.08;;;756.53;;
2576;SDS011;1298;51.252;6.802;2023-08-21T03:29:36;814.30;;;758.08;;
2576;SDS011;1298;51.252;6.802;2023-08-21T03:32:22;817.92;;;761.65;;
2576;SDS011;1298;51.252;6.802;2023-08-21T03:35:07;866.50;;;808.83;;
2576;SDS011;1298;51.252;6.802;2023-08-21T03:37:54;866.08;;;808.45;;
2576;SDS011;1298;51.252;6.802;2023-08-21T03:40:40;815.20;;;758.92;;
2576;SDS011;1298;51.252;6.802;2023-08-21T03:43:25;797.50;;;741.95;;
2576;SDS011;1298;51.252;6.802;2023-08-21T03:46:11;803.25;;;747.47;;
2576;SDS011;1298;51.252;6.802;2023-08-21T03:48:56;819.70;;;762.35;;
2576;SDS011;1298;51.252;6.802;2023-08-21T03:51:42;814.85;;;758.53;;
2576;SDS011;1298;51.252;6.802;2023-08-21T03:54:29;814.42;;;758.50;;
2576;SDS011;1298;51.252;6.802;2023-08-21T03:57:15;878.30;;;819.72;;
2576;SDS011;1298;51.252;6.802;2023-08-21T04:00:00;879.75;;;821.63;;
2576;SDS011;1298;51.252;6.802;2023-08-21T04:02:46;858.30;;;800.80;;
2576;SDS011;1298;51.252;6.802;2023-08-21T04:05:31;793.67;;;737.70;;
2576;SDS011;1298;51.252;6.802;2023-08-21T04:08:17;818.75;;;762.20;;
2576;SDS011;1298;51.252;6.802;2023-08-21T04:11:04;808.70;;;752.58;;
2576;SDS011;1298;51.252;6.802;2023-08-21T04:13:50;794.13;;;738.33;;
2576;SDS011;1298;51.252;6.802;2023-08-21T04:16:36;798.92;;;743.05;;
2576;SDS011;1298;51.252;6.802;2023-08-21T04:19:21;812.55;;;756.30;;
2576;SDS011;1298;51.252;6.802;2023-08-21T04:22:07;820.03;;;763.70;;
2576;SDS011;1298;51.252;6.802;2023-08-21T04:24:52;789.30;;;733.75;;
2576;SDS011;1298;51.252;6.802;2023-08-21T04:27:39;821.30;;;764.92;;
2576;SDS011;1298;51.252;6.802;2023-08-21T04:30:25;819.13;;;762.90;;
2576;SDS011;1298;51.252;6.802;2023-08-21T04:33:11;797.33;;;741.50;;
2576;SDS011;1298;51.252;6.802;2023-08-21T04:35:56;808.33;;;752.22;;
2576;SDS011;1298;51.252;6.802;2023-08-21T04:38:42;825.28;;;768.40;;
2576;SDS011;1298;51.252;6.802;2023-08-21T04:41:27;871.65;;;813.85;;
2576;SDS011;1298;51.252;6.802;2023-08-21T04:44:15;805.55;;;749.38;;
2576;SDS011;1298;51.252;6.802;2023-08-21T04:50:04;806.40;;;750.45;;
2576;SDS011;1298;51.252;6.802;2023-08-21T04:52:50;790.08;;;734.45;;
2576;SDS011;1298;51.252;6.802;2023-08-21T04:55:35;789.22;;;733.90;;
2576;SDS011;1298;51.252;6.802;2023-08-21T04:58:21;821.35;;;764.85;;
2576;SDS011;1298;51.252;6.802;2023-08-21T05:01:07;810.70;;;754.63;;
2576;SDS011;1298;51.252;6.802;2023-08-21T05:03:53;827.72;;;771.03;;
2576;SDS011;1298;51.252;6.802;2023-08-21T05:06:40;801.58;;;745.65;;
2576;SDS011;1298;51.252;6.802;2023-08-21T05:09:25;828.88;;;772.28;;
2576;SDS011;1298;51.252;6.802;2023-08-21T05:12:11;883.15;;;824.78;;
2576;SDS011;1298;51.252;6.802;2023-08-21T05:14:56;827.90;;;771.28;;
2576;SDS011;1298;51.252;6.802;2023-08-21T05:17:43;903.90;;;844.58;;
2576;SDS011;1298;51.252;6.802;2023-08-21T05:20:29;847.53;;;789.80;;
2576;SDS011;1298;51.252;6.802;2023-08-21T05:23:14;838.38;;;780.60;;
2576;SDS011;1298;51.252;6.802;2023-08-21T05:26:00;844.75;;;787.10;;
2576;SDS011;1298;51.252;6.802;2023-08-21T05:28:46;829.72;;;772.80;;
2576;SDS011;1298;51.252;6.802;2023-08-21T05:31:31;816.67;;;760.05;;
2576;SDS011;1298;51.252;6.802;2023-08-21T05:34:18;834.40;;;776.38;;
2576;SDS011;1298;51.252;6.802;2023-08-21T05:37:04;841.47;;;783.67;;
2576;SDS011;1298;51.252;6.802;2023-08-21T05:39:49;829.58;;;772.28;;
2576;SDS011;1298;51.252;6.802;2023-08-21T05:42:35;826.65;;;769.85;;
2576;SDS011;1298;51.252;6.802;2023-08-21T05:45:20;841.50;;;784.03;;
2576;SDS011;1298;51.252;6.802;2023-08-21T05:48:06;864.28;;;806.50;;
2576;SDS011;1298;51.252;6.802;2023-08-21T05:50:53;855.22;;;797.53;;
2576;SDS011;1298;51.252;6.802;2023-08-21T05:53:38;871.58;;;812.35;;
2576;SDS011;1298;51.252;6.802;2023-08-21T05:56:24;851.10;;;792.95;;
2576;SDS011;1298;51.252;6.802;2023-08-21T05:59:10;853.88;;;795.70;;
2576;SDS011;1298;51.252;6.802;2023-08-21T06:01:56;857.88;;;799.88;;
2576;SDS011;1298;51.252;6.802;2023-08-21T06:04:42;876.55;;;817.83;;
2576;SDS011;1298;51.252;6.802;2023-08-21T06:07:29;889.97;;;830.92;;
2576;SDS011;1298;51.252;6.802;2023-08-21T06:10:14;869.60;;;811.13;;
2576;SDS011;1298;51.252;6.802;2023-08-21T06:13:00;885.95;;;826.70;;
2576;SDS011;1298;51.252;6.802;2023-08-21T06:15:46;896.27;;;837.03;;
2576;SDS011;1298;51.252;6.802;2023-08-21T06:18:33;901.58;;;841.95;;
2576;SDS011;1298;51.252;6.802;2023-08-21T06:21:18;887.95;;;828.92;;
2576;SDS011;1298;51.252;6.802;2023-08-21T06:24:05;951.47;;;890.10;;
2576;SDS011;1298;51.252;6.802;2023-08-21T06:26:51;948.95;;;887.75;;
2576;SDS011;1298;51.252;6.802;2023-08-21T06:29:37;910.30;;;850.33;;
2576;SDS011;1298;51.252;6.802;2023-08-21T06:32:24;905.40;;;846.03;;
2576;SDS011;1298;51.252;6.802;2023-08-21T06:35:09;902.60;;;843.10;;
2576;SDS011;1298;51.252;6.802;2023-08-21T06:37:55;897.13;;;837.80;;
2576;SDS011;1298;51.252;6.802;2023-08-21T06:40:42;905.43;;;845.80;;
2576;SDS011;1298;51.252;6.802;2023-08-21T06:43:30;904.70;;;845.30;;
2576;SDS011;1298;51.252;6.802;2023-08-21T06:46:15;966.67;;;904.72;;
2576;SDS011;1298;51.252;6.802;2023-08-21T06:49:01;900.23;;;840.03;;
2576;SDS011;1298;51.252;6.802;2023-08-21T06:51:47;918.53;;;858.63;;
2576;SDS011;1298;51.252;6.802;2023-08-21T06:54:32;978.93;;;916.50;;
2576;SDS011;1298;51.252;6.802;2023-08-21T06:57:19;927.67;;;866.95;;
2576;SDS011;1298;51.252;6.802;2023-08-21T07:00:06;929.43;;;869.37;;
2576;SDS011;1298;51.252;6.802;2023-08-21T07:02:52;901.60;;;842.13;;
2576;SDS011;1298;51.252;6.802;2023-08-21T07:05:38;909.40;;;849.60;;
2576;SDS011;1298;51.252;6.802;2023-08-21T07:08:23;994.37;;;931.17;;
2576;SDS011;1298;51.252;6.802;2023-08-21T07:11:09;906.83;;;846.73;;
2576;SDS011;1298;51.252;6.802;2023-08-21T07:13:57;917.57;;;857.50;;
2576;SDS011;1298;51.252;6.802;2023-08-21T07:16:42;951.60;;;890.42;;
2576;SDS011;1298;51.252;6.802;2023-08-21T07:19:28;947.67;;;886.43;;
2576;SDS011;1298;51.252;6.802;2023-08-21T07:22:14;952.67;;;891.00;;
2576;SDS011;1298;51.252;6.802;2023-08-21T07:24:59;947.60;;;886.23;;
2576;SDS011;1298;51.252;6.802;2023-08-21T07:27:47;967.63;;;904.67;;
2576;SDS011;1298;51.252;6.802;2023-08-21T07:30:34;970.13;;;908.17;;
2576;SDS011;1298;51.252;6.802;2023-08-21T07:33:21;1008.03;;;944.30;;
2576;SDS011;1298;51.252;6.802;2023-08-21T07:36:07;957.47;;;895.97;;
2576;SDS011;1298;51.252;6.802;2023-08-21T07:38:53;1028.37;;;963.87;;
2576;SDS011;1298;51.252;6.802;2023-08-21T07:41:38;938.27;;;877.40;;
2576;SDS011;1298;51.252;6.802;2023-08-21T07:44:24;938.00;;;876.90;;
2576;SDS011;1298;51.252;6.802;2023-08-21T07:47:11;941.73;;;881.17;;
2576;SDS011;1298;51.252;6.802;2023-08-21T07:49:56;940.17;;;879.43;;
2576;SDS011;1298;51.252;6.802;2023-08-21T07:52:42;1021.00;;;956.90;;
2576;SDS011;1298;51.252;6.802;2023-08-21T07:55:28;956.17;;;894.97;;
2576;SDS011;1298;51.252;6.802;2023-08-21T07:58:13;939.97;;;879.50;;
2576;SDS011;1298;51.252;6.802;2023-08-21T08:00:59;934.87;;;874.67;;
2576;SDS011;1298;51.252;6.802;2023-08-21T08:03:46;952.30;;;890.83;;
2576;SDS011;1298;51.252;6.802;2023-08-21T08:06:33;985.17;;;922.90;;
2576;SDS011;1298;51.252;6.802;2023-08-21T08:09:18;994.17;;;931.43;;
2576;SDS011;1298;51.252;6.802;2023-08-21T08:12:04;952.93;;;891.93;;
2576;SDS011;1298;51.252;6.802;2023-08-21T08:14:51;917.53;;;857.53;;
2576;SDS011;1298;51.252;6.802;2023-08-21T08:17:36;935.40;;;875.30;;
2576;SDS011;1298;51.252;6.802;2023-08-21T08:20:23;927.97;;;867.70;;
2576;SDS011;1298;51.252;6.802;2023-08-21T08:23:09;1003.70;;;940.50;;
2576;SDS011;1298;51.252;6.802;2023-08-21T08:25:54;951.20;;;890.10;;
2576;SDS011;1298;51.252;6.802;2023-08-21T08:28:40;1002.80;;;939.50;;
2576;SDS011;1298;51.252;6.802;2023-08-21T08:31:26;1007.50;;;944.07;;
2576;SDS011;1298;51.252;6.802;2023-08-21T08:34:12;952.57;;;891.43;;
2576;SDS011;1298;51.252;6.802;2023-08-21T08:36:58;1002.63;;;939.87;;
2576;SDS011;1298;51.252;6.802;2023-08-21T08:39:45;924.60;;;864.03;;
2576;SDS011;1298;51.252;6.802;2023-08-21T08:42:31;927.53;;;867.37;;
2576;SDS011;1298;51.252;6.802;2023-08-21T08:45:21;945.33;;;884.33;;
2576;SDS011;1298;51.252;6.802;2023-08-21T08:48:15;968.03;;;905.77;;
2576;SDS011;1298;51.252;6.802;2023-08-21T08:51:01;973.93;;;911.67;;
2576;SDS011;1298;51.252;6.802;2023-08-21T08:53:49;938.90;;;878.30;;
2576;SDS011;1298;51.252;6.802;2023-08-21T08:56:34;948.33;;;887.33;;
2576;SDS011;1298;51.252;6.802;2023-08-21T08:59:20;970.03;;;908.17;;
2576;SDS011;1298;51.252;6.802;2023-08-21T09:02:06;950.30;;;889.23;;
2576;SDS011;1298;51.252;6.802;2023-08-21T09:04:52;955.93;;;894.63;;
2576;SDS011;1298;51.252;6.802;2023-08-21T09:07:38;1015.43;;;951.20;;
2576;SDS011;1298;51.252;6.802;2023-08-21T09:10:25;977.33;;;915.23;;
2576;SDS011;1298;51.252;6.802;2023-08-21T09:13:11;980.53;;;918.10;;
2576;SDS011;1298;51.252;6.802;2023-08-21T09:15:58;1022.63;;;958.43;;
2576;SDS011;1298;51.252;6.802;2023-08-21T09:18:47;1027.87;;;962.93;;
2576;SDS011;1298;51.252;6.802;2023-08-21T09:21:33;965.93;;;904.03;;
2576;SDS011;1298;51.252;6.802;2023-08-21T09:24:19;967.70;;;905.27;;
2576;SDS011;1298;51.252;6.802;2023-08-21T09:27:11;970.60;;;908.30;;
2576;SDS011;1298;51.252;6.802;2023-08-21T09:29:58;992.77;;;930.07;;
2576;SDS011;1298;51.252;6.802;2023-08-21T09:32:53;998.60;;;934.90;;
2576;SDS011;1298;51.252;6.802;2023-08-21T09:35:39;971.13;;;908.87;;
2576;SDS011;1298;51.252;6.802;2023-08-21T09:38:27;1011.27;;;947.20;;
2576;SDS011;1298;51.252;6.802;2023-08-21T09:41:13;1007.00;;;943.13;;
2576;SDS011;1298;51.252;6.802;2023-08-21T09:44:00;1056.93;;;990.43;;
2576;SDS011;1298;51.252;6.802;2023-08-21T09:46:48;995.57;;;932.17;;
2576;SDS011;1298;51.252;6.802;2023-08-21T09:49:34;1015.77;;;951.17;;
2576;SDS011;1298;51.252;6.802;2023-08-21T09:52:21;993.30;;;930.10;;
2576;SDS011;1298;51.252;6.802;2023-08-21T09:55:08;1070.73;;;998.40;;
2576;SDS011;1298;51.252;6.802;2023-08-21T09:57:56;1018.70;;;954.30;;
2576;SDS011;1298;51.252;6.802;2023-08-21T10:00:44;1000.50;;;937.03;;
2576;SDS011;1298;51.252;6.802;2023-08-21T10:03:32;1003.27;;;939.83;;
2576;SDS011;1298;51.252;6.802;2023-08-21T10:06:18;1002.73;;;938.97;;
2576;SDS011;1298;51.252;6.802;2023-08-21T10:09:04;1004.33;;;939.83;;
2576;SDS011;1298;51.252;6.802;2023-08-21T10:11:52;999.47;;;936.30;;
2576;SDS011;1298;51.252;6.802;2023-08-21T10:14:38;997.60;;;933.87;;
2576;SDS011;1298;51.252;6.802;2023-08-21T10:17:25;1059.93;;;993.10;;
2576;SDS011;1298;51.252;6.802;2023-08-21T10:20:11;1048.87;;;983.20;;
2576;SDS011;1298;51.252;6.802;2023-08-21T10:23:01;997.47;;;934.67;;
2576;SDS011;1298;51.252;6.802;2023-08-21T10:25:46;987.50;;;924.80;;
2576;SDS011;1298;51.252;6.802;2023-08-21T10:28:48;1058.00;;;991.70;;
2576;SDS011;1298;51.252;6.802;2023-08-21T10:31:36;1015.77;;;952.00;;
2576;SDS011;1298;51.252;6.802;2023-08-21T10:34:25;989.50;;;925.97;;
2576;SDS011;1298;51.252;6.802;2023-08-21T10:37:16;1016.60;;;952.03;;
2576;SDS011;1298;51.252;6.802;2023-08-21T10:40:02;996.40;;;933.33;;
2576;SDS011;1298;51.252;6.802;2023-08-21T10:42:49;996.17;;;933.03;;
2576;SDS011;1298;51.252;6.802;2023-08-21T10:45:35;986.73;;;923.27;;
2576;SDS011;1298;51.252;6.802;2023-08-21T10:48:39;1021.27;;;956.87;;
2576;SDS011;1298;51.252;6.802;2023-08-21T10:51:26;1018.47;;;954.37;;
2576;SDS011;1298;51.252;6.802;2023-08-21T10:54:14;992.40;;;929.30;;
2576;SDS011;1298;51.252;6.802;2023-08-21T10:57:01;984.30;;;921.30;;
2576;SDS011;1298;51.252;6.802;2023-08-21T10:59:54;999.03;;;935.53;;
2576;SDS011;1298;51.252;6.802;2023-08-21T11:02:43;987.33;;;924.07;;
2576;SDS011;1298;51.252;6.802;2023-08-21T11:05:29;1018.60;;;954.30;;
2576;SDS011;1298;51.252;6.802;2023-08-21T11:08:16;1001.33;;;938.13;;
2576;SDS011;1298;51.252;6.802;2023-08-21T11:11:04;1027.97;;;963.27;;
2576;SDS011;1298;51.252;6.802;2023-08-21T11:13:52;1009.27;;;945.60;;
2576;SDS011;1298;51.252;6.802;2023-08-21T11:16:38;1008.57;;;944.70;;
2576;SDS011;1298;51.252;6.802;2023-08-21T11:19:24;1084.67;;;999.90;;
2576;SDS011;1298;51.252;6.802;2023-08-21T11:22:10;1075.77;;;999.90;;
2576;SDS011;1298;51.252;6.802;2023-08-21T11:24:57;1010.63;;;946.97;;
2576;SDS011;1298;51.252;6.802;2023-08-21T11:27:43;1064.97;;;996.90;;
2576;SDS011;1298;51.252;6.802;2023-08-21T11:30:30;1039.47;;;974.27;;
2576;SDS011;1298;51.252;6.802;2023-08-21T11:33:15;1014.07;;;950.37;;
2576;SDS011;1298;51.252;6.802;2023-08-21T11:36:02;1012.57;;;949.13;;
2576;SDS011;1298;51.252;6.802;2023-08-21T11:38:58;1028.53;;;963.97;;
2576;SDS011;1298;51.252;6.802;2023-08-21T11:41:56;1015.63;;;951.43;;
2576;SDS011;1298;51.252;6.802;2023-08-21T11:44:42;1027.53;;;962.63;;
2576;SDS011;1298;51.252;6.802;2023-08-21T11:47:30;1028.33;;;963.90;;
2576;SDS011;1298;51.252;6.802;2023-08-21T11:50:16;1020.23;;;955.77;;
2576;SDS011;1298;51.252;6.802;2023-08-21T11:53:03;1058.57;;;991.67;;
2576;SDS011;1298;51.252;6.802;2023-08-21T11:55:49;1022.33;;;957.97;;
2576;SDS011;1298;51.252;6.802;2023-08-21T11:58:38;1037.13;;;972.23;;
2576;SDS011;1298;51.252;6.802;2023-08-21T12:01:24;1091.97;;;999.90;;
2576;SDS011;1298;51.252;6.802;2023-08-21T12:04:16;1035.00;;;970.57;;
2576;SDS011;1298;51.252;6.802;2023-08-21T12:07:02;1061.80;;;994.30;;
2576;SDS011;1298;51.252;6.802;2023-08-21T12:09:47;1098.67;;;999.90;;
2576;SDS011;1298;51.252;6.802;2023-08-21T12:12:33;1058.00;;;991.40;;
2576;SDS011;1298;51.252;6.802;2023-08-21T12:15:20;1075.83;;;999.90;;
2576;SDS011;1298;51.252;6.802;2023-08-21T12:18:08;1101.47;;;999.90;;
2576;SDS011;1298;51.252;6.802;2023-08-21T12:20:54;1059.67;;;993.07;;
2576;SDS011;1298;51.252;6.802;2023-08-21T12:23:40;1106.03;;;999.90;;
2576;SDS011;1298;51.252;6.802;2023-08-21T12:26:25;1065.33;;;996.80;;
2576;SDS011;1298;51.252;6.802;2023-08-21T12:29:11;1034.83;;;970.17;;
2576;SDS011;1298;51.252;6.802;2023-08-21T12:31:58;1031.73;;;966.77;;
2576;SDS011;1298;51.252;6.802;2023-08-21T12:34:44;1036.63;;;971.97;;
2576;SDS011;1298;51.252;6.802;2023-08-21T12:37:30;1060.93;;;994.00;;
2576;SDS011;1298;51.252;6.802;2023-08-21T12:40:15;1107.30;;;999.90;;
2576;SDS011;1298;51.252;6.802;2023-08-21T12:43:01;1030.73;;;966.23;;
2576;SDS011;1298;51.252;6.802;2023-08-21T12:45:47;1026.30;;;962.03;;
2576;SDS011;1298;51.252;6.802;2023-08-21T12:48:33;1052.57;;;987.07;;
2576;SDS011;1298;51.252;6.802;2023-08-21T12:51:19;1090.10;;;999.90;;
2576;SDS011;1298;51.252;6.802;2023-08-21T12:54:05;1092.33;;;999.90;;
2576;SDS011;1298;51.252;6.802;2023-08-21T12:56:52;1060.53;;;993.33;;
2576;SDS011;1298;51.252;6.802;2023-08-21T12:59:40;1021.07;;;956.20;;
2576;SDS011;1298;51.252;6.802;2023-08-21T13:02:26;1050.23;;;984.87;;
2576;SDS011;1298;51.252;6.802;2023-08-21T13:05:13;1020.77;;;956.50;;
2576;SDS011;1298;51.252;6.802;2023-08-21T13:07:58;1029.87;;;964.93;;
2576;SDS011;1298;51.252;6.802;2023-08-21T13:10:44;1059.63;;;992.63;;
2576;SDS011;1298;51.252;6.802;2023-08-21T13:13:30;1063.47;;;994.63;;
2576;SDS011;1298;51.252;6.802;2023-08-21T13:16:15;1061.77;;;993.17;;
2576;SDS011;1298;51.252;6.802;2023-08-21T13:19:01;1076.23;;;999.83;;
2576;SDS011;1298;51.252;6.802;2023-08-21T13:21:48;1088.37;;;999.90;;
2576;SDS011;1298;51.252;6.802;2023-08-21T13:24:34;1151.03;;;999.90;;
2576;SDS011;1298;51.252;6.802;2023-08-21T13:27:19;1090.43;;;999.90;;
2576;SDS011;1298;51.252;6.802;2023-08-21T13:30:05;1149.43;;;999.90;;
2576;SDS011;1298;51.252;6.802;2023-08-21T13:32:52;1136.77;;;999.90;;
2576;SDS011;1298;51.252;6.802;2023-08-21T13:35:37;1080.77;;;999.90;;
2576;SDS011;1298;51.252;6.802;2023-08-21T13:38:24;1145.53;;;999.90;;
2576;SDS011;1298;51.252;6.802;2023-08-21T13:41:10;1118.67;;;999.90;;
2576;SDS011;1298;51.252;6.802;2023-08-21T13:43:55;1113.33;;;999.90;;
2576;SDS011;1298;51.252;6.802;2023-08-21T13:46:41;1091.90;;;999.90;;
2576;SDS011;1298;51.252;6.802;2023-08-21T13:49:27;1069.53;;;997.37;;
2576;SDS011;1298;51.252;6.802;2023-08-21T13:52:12;1072.83;;;998.70;;
2576;SDS011;1298;51.252;6.802;2023-08-21T13:54:59;1103.10;;;999.90;;
2576;SDS011;1298;51.252;6.802;2023-08-21T13:57:46;1149.00;;;999.90;;
2576;SDS011;1298;51.252;6.802;2023-08-21T14:00:32;1160.70;;;999.90;;
2576;SDS011;1298;51.252;6.802;2023-08-21T14:03:17;1128.23;;;999.90;;
2576;SDS011;1298;51.252;6.802;2023-08-21T14:06:03;1153.87;;;999.90;;
2576;SDS011;1298;51.252;6.802;2023-08-21T14:08:49;1191.50;;;999.90;;
2576;SDS011;1298;51.252;6.802;2023-08-21T14:11:36;1183.47;;;999.90;;
2576;SDS011;1298;51.252;6.802;2023-08-21T14:14:21;1151.87;;;999.90;;
2576;SDS011;1298;51.252;6.802;2023-08-21T14:17:07;1147.90;;;999.90;;
2576;SDS011;1298;51.252;6.802;2023-08-21T14:19:52;1184.33;;;999.90;;
2576;SDS011;1298;51.252;6.802;2023-08-21T14:22:38;1181.13;;;999.90;;
2576;SDS011;1298;51.252;6.802;2023-08-21T14:25:23;1178.43;;;999.90;;
2576;SDS011;1298;51.252;6.802;2023-08-21T14:28:10;1154.77;;;999.90;;
2576;SDS011;1298;51.252;6.802;2023-08-21T14:30:56;1173.67;;;999.90;;
2576;SDS011;1298;51.252;6.802;2023-08-21T14:33:43;1129.87;;;999.90;;
2576;SDS011;1298;51.252;6.802;2023-08-21T14:36:28;1195.37;;;999.90;;
2576;SDS011;1298;51.252;6.802;2023-08-21T14:39:14;1185.63;;;999.90;;
2576;SDS011;1298;51.252;6.802;2023-08-21T14:42:00;1176.20;;;999.90;;
2576;SDS011;1298;51.252;6.802;2023-08-21T14:44:47;1137.73;;;999.90;;
2576;SDS011;1298;51.252;6.802;2023-08-21T14:47:32;1181.90;;;999.90;;
2576;SDS011;1298;51.252;6.802;2023-08-21T14:50:19;1126.10;;;999.90;;
2576;SDS011;1298;51.252;6.802;2023-08-21T14:53:05;1188.37;;;999.90;;
2576;SDS011;1298;51.252;6.802;2023-08-21T14:55:50;1197.17;;;999.90;;
2576;SDS011;1298;51.252;6.802;2023-08-21T14:58:36;1146.10;;;999.90;;
2576;SDS011;1298;51.252;6.802;2023-08-21T15:01:23;1118.57;;;999.90;;
2576;SDS011;1298;51.252;6.802;2023-08-21T15:04:08;1112.17;;;999.90;;
2576;SDS011;1298;51.252;6.802;2023-08-21T15:06:54;1147.93;;;999.90;;
2576;SDS011;1298;51.252;6.802;2023-08-21T15:09:39;1154.97;;;999.90;;
2576;SDS011;1298;51.252;6.802;2023-08-21T15:12:25;1189.57;;;999.90;;
2576;SDS011;1298;51.252;6.802;2023-08-21T15:15:10;1173.50;;;999.90;;
2576;SDS011;1298;51.252;6.802;2023-08-21T15:17:57;1145.27;;;999.90;;
2576;SDS011;1298;51.252;6.802;2023-08-21T15:20:43;1141.97;;;999.90;;
2576;SDS011;1298;51.252;6.802;2023-08-21T15:23:28;1136.37;;;999.90;;
2576;SDS011;1298;51.252;6.802;2023-08-21T15:26:14;1168.33;;;999.90;;
2576;SDS011;1298;51.252;6.802;2023-08-21T15:29:00;1093.37;;;999.90;;
2576;SDS011;1298;51.252;6.802;2023-08-21T15:31:46;1110.17;;;999.90;;
2576;SDS011;1298;51.252;6.802;2023-08-21T15:34:33;1094.43;;;999.90;;
2576;SDS011;1298;51.252;6.802;2023-08-21T15:37:19;1169.27;;;999.90;;
2576;SDS011;1298;51.252;6.802;2023-08-21T15:40:05;1098.67;;;999.90;;
2576;SDS011;1298;51.252;6.802;2023-08-21T15:42:52;1101.17;;;999.90;;
2576;SDS011;1298;51.252;6.802;2023-08-21T15:45:38;1122.67;;;999.90;;
2576;SDS011;1298;51.252;6.802;2023-08-21T15:48:23;1105.83;;;999.90;;
2576;SDS011;1298;51.252;6.802;2023-08-21T15:51:10;1099.97;;;999.90;;
2576;SDS011;1298;51.252;6.802;2023-08-21T15:53:56;1158.33;;;999.90;;
2576;SDS011;1298;51.252;6.802;2023-08-21T15:56:42;1127.13;;;999.90;;
2576;SDS011;1298;51.252;6.802;2023-08-21T15:59:28;1155.30;;;999.90;;
2576;SDS011;1298;51.252;6.802;2023-08-21T16:02:13;1178.13;;;999.90;;
2576;SDS011;1298;51.252;6.802;2023-08-21T16:04:59;1151.40;;;999.90;;
2576;SDS011;1298;51.252;6.802;2023-08-21T16:07:46;1147.13;;;999.90;;
2576;SDS011;1298;51.252;6.802;2023-08-21T16:10:31;1169.43;;;999.90;;